sensor_id;sensor_type;location;lat;lon;timestamp;P1;durP1;ratioP1;P2;durP2;ratioP2
62475;SDS011;50739;45.670;11.936;2023-04-03T00:03:01;15.52;;;11.07;;
62475;SDS011;50739;45.670;11.936;2023-04-03T00:08:04;18.33;;;11.80;;
62475;SDS011;50739;45.670;11.936;2023-04-03T00:13:08;16.55;;;11.00;;
62475;SDS011;50739;45.670;11.936;2023-04-03T00:18:10;16.77;;;10.68;;
62475;SDS011;50739;45.670;11.936;2023-04-03T00:23:13;17.27;;;11.10;;
62475;SDS011;50739;45.670;11.936;2023-04-03T00:28:16;18.92;;;11.90;;
62475;SDS011;50739;45.670;11.936;2023-04-03T00:33:18;15.50;;;10.60;;
62475;SDS011;50739;45.670;11.936;2023-04-03T00:38:23;14.02;;;10.98;;
62475;SDS011;50739;45.670;11.936;2023-04-03T00:43:25;15.55;;;11.07;;
62475;SDS011;50739;45.670;11.936;2023-04-03T00:48:28;14.90;;;10.80;;
62475;SDS011;50739;45.670;11.936;2023-04-03T00:53:35;14.97;;;10.47;;
62475;SDS011;50739;45.670;11.936;2023-04-03T00:58:43;14.60;;;10.43;;
62475;SDS011;50739;45.670;11.936;2023-04-03T01:03:48;15.43;;;9.73;;
62475;SDS011;50739;45.670;11.936;2023-04-03T01:08:51;13.10;;;8.90;;
62475;SDS011;50739;45.670;11.936;2023-04-03T01:13:54;12.27;;;8.50;;
62475;SDS011;50739;45.670;11.936;2023-04-03T01:18:56;12.27;;;8.73;;
62475;SDS011;50739;45.670;11.936;2023-04-03T01:24:02;10.70;;;7.72;;
62475;SDS011;50739;45.670;11.936;2023-04-03T01:29:13;11.50;;;7.60;;
62475;SDS011;50739;45.670;11.936;2023-04-03T01:34:16;10.50;;;7.45;;
62475;SDS011;50739;45.670;11.936;2023-04-03T01:39:18;10.10;;;8.07;;
62475;SDS011;50739;45.670;11.936;2023-04-03T01:44:21;10.63;;;7.80;;
62475;SDS011;50739;45.670;11.936;2023-04-03T01:49:24;11.93;;;7.60;;
62475;SDS011;50739;45.670;11.936;2023-04-03T01:54:26;10.38;;;7.50;;
62475;SDS011;50739;45.670;11.936;2023-04-03T01:59:28;9.53;;;6.70;;
62475;SDS011;50739;45.670;11.936;2023-04-03T02:04:31;11.43;;;7.18;;
62475;SDS011;50739;45.670;11.936;2023-04-03T02:09:33;9.95;;;6.88;;
62475;SDS011;50739;45.670;11.936;2023-04-03T02:14:35;8.95;;;6.82;;
62475;SDS011;50739;45.670;11.936;2023-04-03T02:19:38;12.10;;;7.35;;
62475;SDS011;50739;45.670;11.936;2023-04-03T02:24:40;9.02;;;7.47;;
62475;SDS011;50739;45.670;11.936;2023-04-03T02:29:41;10.10;;;6.80;;
62475;SDS011;50739;45.670;11.936;2023-04-03T02:34:45;9.77;;;6.13;;
62475;SDS011;50739;45.670;11.936;2023-04-03T02:39:47;9.93;;;6.50;;
62475;SDS011;50739;45.670;11.936;2023-04-03T02:44:49;8.23;;;6.20;;
62475;SDS011;50739;45.670;11.936;2023-04-03T02:49:52;8.00;;;6.00;;
62475;SDS011;50739;45.670;11.936;2023-04-03T02:54:54;9.30;;;5.90;;
62475;SDS011;50739;45.670;11.936;2023-04-03T02:59:55;7.07;;;5.95;;
62475;SDS011;50739;45.670;11.936;2023-04-03T03:04:59;9.20;;;5.70;;
62475;SDS011;50739;45.670;11.936;2023-04-03T03:10:01;10.77;;;5.97;;
62475;SDS011;50739;45.670;11.936;2023-04-03T03:15:03;7.65;;;5.40;;
62475;SDS011;50739;45.670;11.936;2023-04-03T03:20:07;8.07;;;5.60;;
62475;SDS011;50739;45.670;11.936;2023-04-03T03:25:09;7.50;;;5.32;;
62475;SDS011;50739;45.670;11.936;2023-04-03T03:30:11;6.87;;;5.70;;
62475;SDS011;50739;45.670;11.936;2023-04-03T03:35:15;7.67;;;5.07;;
62475;SDS011;50739;45.670;11.936;2023-04-03T03:40:17;7.70;;;4.97;;
62475;SDS011;50739;45.670;11.936;2023-04-03T03:45:19;6.47;;;4.63;;
62475;SDS011;50739;45.670;11.936;2023-04-03T03:50:22;6.43;;;4.60;;
62475;SDS011;50739;45.670;11.936;2023-04-03T03:55:24;7.45;;;4.60;;
62475;SDS011;50739;45.670;11.936;2023-04-03T04:00:26;7.90;;;4.25;;
62475;SDS011;50739;45.670;11.936;2023-04-03T04:05:29;6.73;;;4.83;;
62475;SDS011;50739;45.670;11.936;2023-04-03T04:10:31;6.10;;;4.75;;
62475;SDS011;50739;45.670;11.936;2023-04-03T04:15:33;7.25;;;5.00;;
62475;SDS011;50739;45.670;11.936;2023-04-03T04:20:36;7.05;;;5.07;;
62475;SDS011;50739;45.670;11.936;2023-04-03T04:25:38;7.50;;;5.30;;
62475;SDS011;50739;45.670;11.936;2023-04-03T04:30:40;7.45;;;5.03;;
62475;SDS011;50739;45.670;11.936;2023-04-03T04:35:43;8.82;;;5.38;;
62475;SDS011;50739;45.670;11.936;2023-04-03T04:40:46;9.05;;;5.50;;
62475;SDS011;50739;45.670;11.936;2023-04-03T04:45:48;9.37;;;5.57;;
62475;SDS011;50739;45.670;11.936;2023-04-03T04:50:51;10.27;;;6.03;;
62475;SDS011;50739;45.670;11.936;2023-04-03T04:55:53;7.55;;;5.55;;
62475;SDS011;50739;45.670;11.936;2023-04-03T05:00:58;9.20;;;5.17;;
62475;SDS011;50739;45.670;11.936;2023-04-03T05:06:02;7.43;;;5.40;;
62475;SDS011;50739;45.670;11.936;2023-04-03T05:11:04;8.60;;;5.35;;
62475;SDS011;50739;45.670;11.936;2023-04-03T05:16:06;8.02;;;5.20;;
62475;SDS011;50739;45.670;11.936;2023-04-03T05:21:09;8.02;;;5.32;;
62475;SDS011;50739;45.670;11.936;2023-04-03T05:26:11;8.43;;;5.88;;
62475;SDS011;50739;45.670;11.936;2023-04-03T05:31:13;8.75;;;5.20;;
62475;SDS011;50739;45.670;11.936;2023-04-03T05:36:16;7.70;;;5.32;;
62475;SDS011;50739;45.670;11.936;2023-04-03T05:41:19;10.82;;;5.78;;
62475;SDS011;50739;45.670;11.936;2023-04-03T05:46:21;8.77;;;4.88;;
62475;SDS011;50739;45.670;11.936;2023-04-03T05:51:25;8.07;;;4.97;;
62475;SDS011;50739;45.670;11.936;2023-04-03T05:56:31;13.70;;;5.33;;
62475;SDS011;50739;45.670;11.936;2023-04-03T06:01:33;9.65;;;5.13;;
62475;SDS011;50739;45.670;11.936;2023-04-03T06:06:46;9.93;;;5.60;;
62475;SDS011;50739;45.670;11.936;2023-04-03T06:11:51;19.03;;;6.60;;
62475;SDS011;50739;45.670;11.936;2023-04-03T06:16:53;9.03;;;4.80;;
62475;SDS011;50739;45.670;11.936;2023-04-03T06:21:57;7.07;;;5.07;;
62475;SDS011;50739;45.670;11.936;2023-04-03T06:27:00;9.85;;;4.38;;
62475;SDS011;50739;45.670;11.936;2023-04-03T06:32:02;6.03;;;4.10;;
62475;SDS011;50739;45.670;11.936;2023-04-03T06:37:05;5.97;;;3.27;;
62475;SDS011;50739;45.670;11.936;2023-04-03T06:42:07;5.70;;;3.00;;
62475;SDS011;50739;45.670;11.936;2023-04-03T06:47:09;3.15;;;2.03;;
62475;SDS011;50739;45.670;11.936;2023-04-03T06:52:14;4.38;;;1.90;;
62475;SDS011;50739;45.670;11.936;2023-04-03T06:57:16;3.35;;;1.75;;
62475;SDS011;50739;45.670;11.936;2023-04-03T07:02:18;3.35;;;1.85;;
62475;SDS011;50739;45.670;11.936;2023-04-03T07:07:22;4.95;;;1.80;;
62475;SDS011;50739;45.670;11.936;2023-04-03T07:12:24;6.57;;;1.70;;
62475;SDS011;50739;45.670;11.936;2023-04-03T07:17:26;42.57;;;3.87;;
62475;SDS011;50739;45.670;11.936;2023-04-03T07:22:29;5.05;;;1.83;;
62475;SDS011;50739;45.670;11.936;2023-04-03T07:27:31;4.03;;;1.92;;
62475;SDS011;50739;45.670;11.936;2023-04-03T07:32:33;7.75;;;2.00;;
62475;SDS011;50739;45.670;11.936;2023-04-03T07:37:36;5.80;;;2.03;;
62475;SDS011;50739;45.670;11.936;2023-04-03T07:42:38;4.60;;;1.70;;
62475;SDS011;50739;45.670;11.936;2023-04-03T07:47:40;3.25;;;1.50;;
62475;SDS011;50739;45.670;11.936;2023-04-03T07:52:43;12.80;;;2.20;;
62475;SDS011;50739;45.670;11.936;2023-04-03T07:57:45;28.73;;;3.05;;
62475;SDS011;50739;45.670;11.936;2023-04-03T08:02:47;4.95;;;2.00;;
62475;SDS011;50739;45.670;11.936;2023-04-03T08:07:52;6.03;;;1.95;;
62475;SDS011;50739;45.670;11.936;2023-04-03T08:12:54;8.15;;;1.75;;
62475;SDS011;50739;45.670;11.936;2023-04-03T08:17:56;3.17;;;1.70;;
62475;SDS011;50739;45.670;11.936;2023-04-03T08:23:00;5.20;;;1.70;;
62475;SDS011;50739;45.670;11.936;2023-04-03T08:28:02;3.90;;;2.00;;
62475;SDS011;50739;45.670;11.936;2023-04-03T08:33:04;3.00;;;1.80;;
62475;SDS011;50739;45.670;11.936;2023-04-03T08:38:07;1.73;;;1.40;;
62475;SDS011;50739;45.670;11.936;2023-04-03T08:43:16;3.50;;;1.40;;
62475;SDS011;50739;45.670;11.936;2023-04-03T08:48:29;6.50;;;1.60;;
62475;SDS011;50739;45.670;11.936;2023-04-03T08:53:35;3.97;;;1.67;;
62475;SDS011;50739;45.670;11.936;2023-04-03T08:58:42;4.60;;;1.65;;
62475;SDS011;50739;45.670;11.936;2023-04-03T09:03:49;3.05;;;1.70;;
62475;SDS011;50739;45.670;11.936;2023-04-03T09:08:54;7.18;;;1.60;;
62475;SDS011;50739;45.670;11.936;2023-04-03T09:14:04;2.00;;;1.43;;
62475;SDS011;50739;45.670;11.936;2023-04-03T09:19:14;3.55;;;1.70;;
62475;SDS011;50739;45.670;11.936;2023-04-03T09:24:24;2.63;;;1.50;;
62475;SDS011;50739;45.670;11.936;2023-04-03T09:29:27;2.37;;;1.50;;
62475;SDS011;50739;45.670;11.936;2023-04-03T09:34:30;2.97;;;1.60;;
62475;SDS011;50739;45.670;11.936;2023-04-03T09:39:49;1.70;;;1.30;;
62475;SDS011;50739;45.670;11.936;2023-04-03T09:44:54;6.63;;;1.60;;
62475;SDS011;50739;45.670;11.936;2023-04-03T09:50:08;1.83;;;1.38;;
62475;SDS011;50739;45.670;11.936;2023-04-03T09:55:21;5.63;;;1.58;;
62475;SDS011;50739;45.670;11.936;2023-04-03T10:00:28;4.03;;;1.90;;
62475;SDS011;50739;45.670;11.936;2023-04-03T10:05:34;2.20;;;1.63;;
62475;SDS011;50739;45.670;11.936;2023-04-03T10:10:40;2.03;;;1.50;;
62475;SDS011;50739;45.670;11.936;2023-04-03T10:15:44;2.63;;;1.58;;
62475;SDS011;50739;45.670;11.936;2023-04-03T10:20:48;3.72;;;1.63;;
62475;SDS011;50739;45.670;11.936;2023-04-03T10:25:59;4.00;;;1.90;;
62475;SDS011;50739;45.670;11.936;2023-04-03T10:31:12;3.10;;;1.80;;
62475;SDS011;50739;45.670;11.936;2023-04-03T10:36:21;2.50;;;1.60;;
62475;SDS011;50739;45.670;11.936;2023-04-03T10:41:33;2.00;;;1.80;;
62475;SDS011;50739;45.670;11.936;2023-04-03T10:46:45;3.67;;;1.90;;
62475;SDS011;50739;45.670;11.936;2023-04-03T10:51:51;3.05;;;1.60;;
62475;SDS011;50739;45.670;11.936;2023-04-03T10:57:02;1.98;;;1.40;;
62475;SDS011;50739;45.670;11.936;2023-04-03T11:02:07;2.45;;;2.10;;
62475;SDS011;50739;45.670;11.936;2023-04-03T11:07:18;3.00;;;2.00;;
62475;SDS011;50739;45.670;11.936;2023-04-03T11:12:25;2.80;;;1.73;;
62475;SDS011;50739;45.670;11.936;2023-04-03T11:17:35;3.20;;;2.30;;
62475;SDS011;50739;45.670;11.936;2023-04-03T11:22:45;2.17;;;1.90;;
62475;SDS011;50739;45.670;11.936;2023-04-03T11:27:55;2.20;;;2.00;;
62475;SDS011;50739;45.670;11.936;2023-04-03T11:38:27;3.42;;;1.90;;
62475;SDS011;50739;45.670;11.936;2023-04-03T11:43:32;2.60;;;1.90;;
62475;SDS011;50739;45.670;11.936;2023-04-03T11:48:42;2.67;;;2.30;;
62475;SDS011;50739;45.670;11.936;2023-04-03T11:53:47;2.80;;;1.95;;
62475;SDS011;50739;45.670;11.936;2023-04-03T12:04:25;2.63;;;2.30;;
62475;SDS011;50739;45.670;11.936;2023-04-03T12:09:31;3.22;;;2.10;;
62475;SDS011;50739;45.670;11.936;2023-04-03T12:25:59;3.90;;;2.70;;
62475;SDS011;50739;45.670;11.936;2023-04-03T12:31:04;3.23;;;2.30;;
62475;SDS011;50739;45.670;11.936;2023-04-03T12:36:07;5.40;;;2.40;;
62475;SDS011;50739;45.670;11.936;2023-04-03T12:41:17;7.13;;;2.50;;
62475;SDS011;50739;45.670;11.936;2023-04-03T12:46:24;6.25;;;2.58;;
62475;SDS011;50739;45.670;11.936;2023-04-03T12:51:37;2.97;;;2.60;;
62475;SDS011;50739;45.670;11.936;2023-04-03T12:56:40;2.50;;;2.27;;
62475;SDS011;50739;45.670;11.936;2023-04-03T13:01:44;2.75;;;2.50;;
62475;SDS011;50739;45.670;11.936;2023-04-03T13:06:54;2.97;;;2.70;;
62475;SDS011;50739;45.670;11.936;2023-04-03T13:11:57;3.53;;;2.53;;
62475;SDS011;50739;45.670;11.936;2023-04-03T13:17:06;3.23;;;2.63;;
62475;SDS011;50739;45.670;11.936;2023-04-03T13:22:18;5.30;;;2.80;;
62475;SDS011;50739;45.670;11.936;2023-04-03T13:27:27;3.00;;;2.47;;
62475;SDS011;50739;45.670;11.936;2023-04-03T13:32:33;6.03;;;3.20;;
62475;SDS011;50739;45.670;11.936;2023-04-03T13:37:35;2.75;;;2.45;;
62475;SDS011;50739;45.670;11.936;2023-04-03T13:42:37;3.55;;;2.90;;
62475;SDS011;50739;45.670;11.936;2023-04-03T13:47:43;3.00;;;2.13;;
62475;SDS011;50739;45.670;11.936;2023-04-03T13:52:47;5.45;;;2.42;;
62475;SDS011;50739;45.670;11.936;2023-04-03T13:57:55;3.10;;;2.00;;
62475;SDS011;50739;45.670;11.936;2023-04-03T14:02:59;2.92;;;2.15;;
62475;SDS011;50739;45.670;11.936;2023-04-03T14:08:02;2.53;;;2.20;;
62475;SDS011;50739;45.670;11.936;2023-04-03T14:13:04;3.90;;;2.08;;
62475;SDS011;50739;45.670;11.936;2023-04-03T14:18:09;3.37;;;1.60;;
62475;SDS011;50739;45.670;11.936;2023-04-03T14:23:12;4.18;;;1.30;;
62475;SDS011;50739;45.670;11.936;2023-04-03T14:28:16;3.40;;;1.60;;
62475;SDS011;50739;45.670;11.936;2023-04-03T14:33:21;5.20;;;1.42;;
62475;SDS011;50739;45.670;11.936;2023-04-03T14:38:24;2.15;;;1.25;;
62475;SDS011;50739;45.670;11.936;2023-04-03T14:43:27;4.00;;;1.23;;
62475;SDS011;50739;45.670;11.936;2023-04-03T14:48:31;4.72;;;1.10;;
62475;SDS011;50739;45.670;11.936;2023-04-03T14:53:32;5.95;;;1.52;;
62475;SDS011;50739;45.670;11.936;2023-04-03T14:58:34;6.75;;;1.35;;
62475;SDS011;50739;45.670;11.936;2023-04-03T15:03:38;3.47;;;0.95;;
62475;SDS011;50739;45.670;11.936;2023-04-03T15:08:40;5.57;;;1.20;;
62475;SDS011;50739;45.670;11.936;2023-04-03T15:13:43;2.88;;;1.10;;
62475;SDS011;50739;45.670;11.936;2023-04-03T15:18:48;2.57;;;0.87;;
62475;SDS011;50739;45.670;11.936;2023-04-03T15:23:50;3.70;;;1.00;;
62475;SDS011;50739;45.670;11.936;2023-04-03T15:28:51;2.30;;;0.87;;
62475;SDS011;50739;45.670;11.936;2023-04-03T15:33:55;3.30;;;0.90;;
62475;SDS011;50739;45.670;11.936;2023-04-03T15:38:57;2.45;;;0.88;;
62475;SDS011;50739;45.670;11.936;2023-04-03T15:43:58;3.33;;;1.10;;
62475;SDS011;50739;45.670;11.936;2023-04-03T15:49:02;3.03;;;1.20;;
62475;SDS011;50739;45.670;11.936;2023-04-03T15:54:04;2.65;;;1.50;;
62475;SDS011;50739;45.670;11.936;2023-04-03T15:59:06;1.90;;;1.03;;
62475;SDS011;50739;45.670;11.936;2023-04-03T16:04:09;2.40;;;1.00;;
62475;SDS011;50739;45.670;11.936;2023-04-03T16:09:11;2.40;;;1.00;;
62475;SDS011;50739;45.670;11.936;2023-04-03T16:14:13;3.03;;;0.87;;
62475;SDS011;50739;45.670;11.936;2023-04-03T16:19:17;3.28;;;0.90;;
62475;SDS011;50739;45.670;11.936;2023-04-03T16:24:18;3.00;;;1.20;;
62475;SDS011;50739;45.670;11.936;2023-04-03T16:29:20;4.25;;;1.05;;
62475;SDS011;50739;45.670;11.936;2023-04-03T16:34:24;3.47;;;1.30;;
62475;SDS011;50739;45.670;11.936;2023-04-03T16:39:26;2.08;;;1.00;;
62475;SDS011;50739;45.670;11.936;2023-04-03T16:44:28;4.68;;;1.13;;
62475;SDS011;50739;45.670;11.936;2023-04-03T16:49:31;3.10;;;1.13;;
62475;SDS011;50739;45.670;11.936;2023-04-03T16:54:34;4.93;;;1.77;;
62475;SDS011;50739;45.670;11.936;2023-04-03T16:59:35;2.90;;;1.00;;
62475;SDS011;50739;45.670;11.936;2023-04-03T17:04:39;3.60;;;0.97;;
62475;SDS011;50739;45.670;11.936;2023-04-03T17:09:40;4.80;;;1.23;;
62475;SDS011;50739;45.670;11.936;2023-04-03T17:14:42;4.38;;;1.27;;
62475;SDS011;50739;45.670;11.936;2023-04-03T17:19:46;3.37;;;1.37;;
62475;SDS011;50739;45.670;11.936;2023-04-03T17:24:48;3.23;;;1.57;;
62475;SDS011;50739;45.670;11.936;2023-04-03T17:29:50;4.72;;;1.65;;
62475;SDS011;50739;45.670;11.936;2023-04-03T17:34:54;4.15;;;1.80;;
62475;SDS011;50739;45.670;11.936;2023-04-03T17:39:56;6.37;;;2.67;;
62475;SDS011;50739;45.670;11.936;2023-04-03T17:44:58;10.80;;;5.63;;
62475;SDS011;50739;45.670;11.936;2023-04-03T17:50:01;3.53;;;1.60;;
62475;SDS011;50739;45.670;11.936;2023-04-03T17:55:04;3.43;;;1.40;;
62475;SDS011;50739;45.670;11.936;2023-04-03T18:00:06;4.80;;;1.50;;
62475;SDS011;50739;45.670;11.936;2023-04-03T18:05:11;2.47;;;1.80;;
62475;SDS011;50739;45.670;11.936;2023-04-03T18:10:13;3.78;;;1.35;;
62475;SDS011;50739;45.670;11.936;2023-04-03T18:15:15;4.53;;;1.47;;
62475;SDS011;50739;45.670;11.936;2023-04-03T18:20:18;5.30;;;2.20;;
62475;SDS011;50739;45.670;11.936;2023-04-03T18:25:20;3.63;;;1.80;;
62475;SDS011;50739;45.670;11.936;2023-04-03T18:30:22;3.88;;;1.85;;
62475;SDS011;50739;45.670;11.936;2023-04-03T18:35:26;4.50;;;1.60;;
62475;SDS011;50739;45.670;11.936;2023-04-03T18:40:29;4.60;;;2.10;;
62475;SDS011;50739;45.670;11.936;2023-04-03T18:45:31;4.00;;;2.07;;
62475;SDS011;50739;45.670;11.936;2023-04-03T18:50:35;4.63;;;2.00;;
62475;SDS011;50739;45.670;11.936;2023-04-03T18:55:36;3.30;;;1.70;;
62475;SDS011;50739;45.670;11.936;2023-04-03T19:00:39;3.15;;;1.50;;
62475;SDS011;50739;45.670;11.936;2023-04-03T19:05:43;3.85;;;2.10;;
62475;SDS011;50739;45.670;11.936;2023-04-03T19:10:45;2.53;;;1.20;;
62475;SDS011;50739;45.670;11.936;2023-04-03T19:15:47;4.25;;;1.67;;
62475;SDS011;50739;45.670;11.936;2023-04-03T19:20:53;3.13;;;1.47;;
62475;SDS011;50739;45.670;11.936;2023-04-03T19:25:56;5.13;;;2.00;;
62475;SDS011;50739;45.670;11.936;2023-04-03T19:31:00;4.03;;;1.43;;
62475;SDS011;50739;45.670;11.936;2023-04-03T19:36:05;5.05;;;1.80;;
62475;SDS011;50739;45.670;11.936;2023-04-03T19:41:08;3.40;;;1.48;;
62475;SDS011;50739;45.670;11.936;2023-04-03T19:46:12;2.37;;;1.50;;
62475;SDS011;50739;45.670;11.936;2023-04-03T19:51:15;4.32;;;1.63;;
62475;SDS011;50739;45.670;11.936;2023-04-03T19:56:17;5.97;;;1.83;;
62475;SDS011;50739;45.670;11.936;2023-04-03T20:01:20;4.93;;;1.80;;
62475;SDS011;50739;45.670;11.936;2023-04-03T20:06:24;3.63;;;1.70;;
62475;SDS011;50739;45.670;11.936;2023-04-03T20:11:26;6.30;;;2.20;;
62475;SDS011;50739;45.670;11.936;2023-04-03T20:16:28;3.63;;;1.98;;
62475;SDS011;50739;45.670;11.936;2023-04-03T20:21:32;6.20;;;2.10;;
62475;SDS011;50739;45.670;11.936;2023-04-03T20:26:34;3.88;;;1.95;;
62475;SDS011;50739;45.670;11.936;2023-04-03T20:31:41;5.63;;;2.00;;
62475;SDS011;50739;45.670;11.936;2023-04-03T20:36:44;2.80;;;1.63;;
62475;SDS011;50739;45.670;11.936;2023-04-03T20:41:46;4.53;;;1.77;;
62475;SDS011;50739;45.670;11.936;2023-04-03T20:46:48;5.15;;;1.60;;
62475;SDS011;50739;45.670;11.936;2023-04-03T20:51:52;4.27;;;1.50;;
62475;SDS011;50739;45.670;11.936;2023-04-03T20:56:54;5.00;;;1.77;;
62475;SDS011;50739;45.670;11.936;2023-04-03T21:01:56;5.63;;;1.60;;
62475;SDS011;50739;45.670;11.936;2023-04-03T21:23:55;5.85;;;1.70;;
62475;SDS011;50739;45.670;11.936;2023-04-03T21:28:57;3.43;;;1.70;;
62475;SDS011;50739;45.670;11.936;2023-04-03T21:34:00;4.80;;;1.70;;
62475;SDS011;50739;45.670;11.936;2023-04-03T21:39:02;5.32;;;1.50;;
62475;SDS011;50739;45.670;11.936;2023-04-03T21:44:04;4.60;;;1.70;;
62475;SDS011;50739;45.670;11.936;2023-04-03T21:49:08;3.83;;;1.90;;
62475;SDS011;50739;45.670;11.936;2023-04-03T21:54:10;5.82;;;1.80;;
62475;SDS011;50739;45.670;11.936;2023-04-03T21:59:12;5.03;;;1.50;;
62475;SDS011;50739;45.670;11.936;2023-04-03T22:04:15;3.55;;;1.48;;
62475;SDS011;50739;45.670;11.936;2023-04-03T22:09:17;3.55;;;1.50;;
62475;SDS011;50739;45.670;11.936;2023-04-03T22:14:19;4.20;;;1.20;;
62475;SDS011;50739;45.670;11.936;2023-04-03T22:19:22;2.28;;;1.10;;
62475;SDS011;50739;45.670;11.936;2023-04-03T22:24:24;1.80;;;1.10;;
62475;SDS011;50739;45.670;11.936;2023-04-03T22:29:26;1.93;;;1.20;;
62475;SDS011;50739;45.670;11.936;2023-04-03T22:34:29;2.80;;;1.10;;
62475;SDS011;50739;45.670;11.936;2023-04-03T22:39:32;3.00;;;1.10;;
62475;SDS011;50739;45.670;11.936;2023-04-03T22:44:34;1.50;;;1.10;;
62475;SDS011;50739;45.670;11.936;2023-04-03T22:49:37;1.42;;;1.02;;
62475;SDS011;50739;45.670;11.936;2023-04-03T22:54:39;1.60;;;1.15;;
62475;SDS011;50739;45.670;11.936;2023-04-03T22:59:41;2.00;;;1.30;;
62475;SDS011;50739;45.670;11.936;2023-04-03T23:04:44;2.83;;;1.23;;
62475;SDS011;50739;45.670;11.936;2023-04-03T23:09:46;2.50;;;1.57;;
62475;SDS011;50739;45.670;11.936;2023-04-03T23:14:48;2.13;;;1.50;;
62475;SDS011;50739;45.670;11.936;2023-04-03T23:19:51;1.93;;;1.10;;
62475;SDS011;50739;45.670;11.936;2023-04-03T23:24:53;3.90;;;2.20;;
62475;SDS011;50739;45.670;11.936;2023-04-03T23:29:55;2.38;;;1.40;;
62475;SDS011;50739;45.670;11.936;2023-04-03T23:34:58;2.05;;;1.35;;
62475;SDS011;50739;45.670;11.936;2023-04-03T23:40:00;3.55;;;1.50;;
62475;SDS011;50739;45.670;11.936;2023-04-03T23:45:02;3.27;;;1.73;;
62475;SDS011;50739;45.670;11.936;2023-04-03T23:50:06;2.35;;;1.40;;
62475;SDS011;50739;45.670;11.936;2023-04-03T23:55:09;1.92;;;1.20;;
